sensor_id;sensor_type;location;lat;lon;timestamp;pressure;altitude;pressure_sealevel;temperature
51149;BMP280;37210;50.058;8.688;2023-05-16T00:02:05;99977.06;;;15.12
51149;BMP280;37210;50.058;8.688;2023-05-16T00:04:35;99966.63;;;15.07
51149;BMP280;37210;50.058;8.688;2023-05-16T00:07:03;99970.59;;;15.27
51149;BMP280;37210;50.058;8.688;2023-05-16T00:09:30;99978.41;;;15.30
51149;BMP280;37210;50.058;8.688;2023-05-16T00:11:58;99981.50;;;14.70
51149;BMP280;37210;50.058;8.688;2023-05-16T00:14:25;99947.41;;;15.04
51149;BMP280;37210;50.058;8.688;2023-05-16T00:16:53;99973.47;;;15.16
51149;BMP280;37210;50.058;8.688;2023-05-16T00:19:23;99970.97;;;15.10
51149;BMP280;37210;50.058;8.688;2023-05-16T00:21:53;99971.81;;;15.12
51149;BMP280;37210;50.058;8.688;2023-05-16T00:24:20;99964.16;;;15.00
51149;BMP280;37210;50.058;8.688;2023-05-16T00:26:48;99967.75;;;14.97
51149;BMP280;37210;50.058;8.688;2023-05-16T00:29:15;99963.53;;;14.89
51149;BMP280;37210;50.058;8.688;2023-05-16T00:31:43;99973.09;;;14.93
51149;BMP280;37210;50.058;8.688;2023-05-16T00:34:10;99978.88;;;15.10
51149;BMP280;37210;50.058;8.688;2023-05-16T00:36:37;99978.25;;;14.99
51149;BMP280;37210;50.058;8.688;2023-05-16T00:39:06;99974.38;;;15.13
51149;BMP280;37210;50.058;8.688;2023-05-16T00:41:35;99946.13;;;14.82
51149;BMP280;37210;50.058;8.688;2023-05-16T00:44:05;99956.34;;;14.97
51149;BMP280;37210;50.058;8.688;2023-05-16T00:46:32;99959.06;;;14.92
51149;BMP280;37210;50.058;8.688;2023-05-16T00:49:01;99973.25;;;14.87
51149;BMP280;37210;50.058;8.688;2023-05-16T00:51:29;99977.72;;;14.82
51149;BMP280;37210;50.058;8.688;2023-05-16T00:53:57;99975.94;;;14.84
51149;BMP280;37210;50.058;8.688;2023-05-16T00:56:27;99960.81;;;14.92
51149;BMP280;37210;50.058;8.688;2023-05-16T00:58:55;99959.16;;;14.88
51149;BMP280;37210;50.058;8.688;2023-05-16T01:01:24;99963.50;;;14.90
51149;BMP280;37210;50.058;8.688;2023-05-16T01:03:54;99946.66;;;14.58
51149;BMP280;37210;50.058;8.688;2023-05-16T01:06:22;99990.75;;;14.88
51149;BMP280;37210;50.058;8.688;2023-05-16T01:08:50;99990.84;;;14.83
51149;BMP280;37210;50.058;8.688;2023-05-16T01:11:21;99992.63;;;14.83
51149;BMP280;37210;50.058;8.688;2023-05-16T01:14:02;99984.75;;;14.81
51149;BMP280;37210;50.058;8.688;2023-05-16T01:16:42;99985.63;;;14.82
51149;BMP280;37210;50.058;8.688;2023-05-16T01:19:30;99994.84;;;14.61
51149;BMP280;37210;50.058;8.688;2023-05-16T01:22:15;99963.28;;;14.60
51149;BMP280;37210;50.058;8.688;2023-05-16T01:25:04;99960.06;;;14.87
51149;BMP280;37210;50.058;8.688;2023-05-16T01:27:42;99990.81;;;14.86
51149;BMP280;37210;50.058;8.688;2023-05-16T01:30:16;99985.81;;;14.74
51149;BMP280;37210;50.058;8.688;2023-05-16T01:32:45;99986.22;;;14.53
51149;BMP280;37210;50.058;8.688;2023-05-16T01:35:15;99992.47;;;14.49
51149;BMP280;37210;50.058;8.688;2023-05-16T01:37:51;99986.06;;;14.61
51149;BMP280;37210;50.058;8.688;2023-05-16T01:40:34;99987.72;;;14.66
51149;BMP280;37210;50.058;8.688;2023-05-16T01:43:13;99984.88;;;14.77
51149;BMP280;37210;50.058;8.688;2023-05-16T01:45:52;99949.78;;;14.35
51149;BMP280;37210;50.058;8.688;2023-05-16T01:48:30;99916.66;;;14.22
51149;BMP280;37210;50.058;8.688;2023-05-16T01:51:02;99930.94;;;14.09
51149;BMP280;37210;50.058;8.688;2023-05-16T01:53:35;99953.41;;;14.26
51149;BMP280;37210;50.058;8.688;2023-05-16T01:56:09;99992.47;;;14.49
51149;BMP280;37210;50.058;8.688;2023-05-16T01:58:43;99996.19;;;14.37
51149;BMP280;37210;50.058;8.688;2023-05-16T02:01:13;99996.81;;;14.52
51149;BMP280;37210;50.058;8.688;2023-05-16T02:03:40;99994.66;;;14.24
51149;BMP280;37210;50.058;8.688;2023-05-16T02:06:08;100000.41;;;14.48
51149;BMP280;37210;50.058;8.688;2023-05-16T02:08:35;99993.03;;;14.63
51149;BMP280;37210;50.058;8.688;2023-05-16T02:11:03;99999.44;;;14.52
51149;BMP280;37210;50.058;8.688;2023-05-16T02:13:31;99975.50;;;14.18
51149;BMP280;37210;50.058;8.688;2023-05-16T02:16:04;100001.56;;;14.31
51149;BMP280;37210;50.058;8.688;2023-05-16T02:18:34;100011.09;;;14.38
51149;BMP280;37210;50.058;8.688;2023-05-16T02:21:02;99874.00;;;13.62
51149;BMP280;37210;50.058;8.688;2023-05-16T02:23:30;99983.59;;;14.07
51149;BMP280;37210;50.058;8.688;2023-05-16T02:25:59;99964.44;;;13.99
51149;BMP280;37210;50.058;8.688;2023-05-16T02:28:27;100005.88;;;14.35
51149;BMP280;37210;50.058;8.688;2023-05-16T02:30:55;100009.66;;;14.19
51149;BMP280;37210;50.058;8.688;2023-05-16T02:33:25;100014.22;;;14.08
51149;BMP280;37210;50.058;8.688;2023-05-16T02:35:53;100013.09;;;14.24
51149;BMP280;37210;50.058;8.688;2023-05-16T02:38:21;100020.97;;;14.23
51149;BMP280;37210;50.058;8.688;2023-05-16T02:40:49;99960.66;;;13.65
51149;BMP280;37210;50.058;8.688;2023-05-16T02:43:16;100017.16;;;13.92
51149;BMP280;37210;50.058;8.688;2023-05-16T02:45:44;99962.41;;;13.66
51149;BMP280;37210;50.058;8.688;2023-05-16T02:48:11;99893.31;;;13.08
51149;BMP280;37210;50.058;8.688;2023-05-16T02:50:42;99910.59;;;13.22
51149;BMP280;37210;50.058;8.688;2023-05-16T02:53:09;100013.09;;;13.74
51149;BMP280;37210;50.058;8.688;2023-05-16T02:55:37;100017.44;;;13.75
51149;BMP280;37210;50.058;8.688;2023-05-16T02:58:04;99940.91;;;13.41
51149;BMP280;37210;50.058;8.688;2023-05-16T03:00:32;99912.19;;;13.31
51149;BMP280;37210;50.058;8.688;2023-05-16T03:03:00;100037.19;;;13.99
51149;BMP280;37210;50.058;8.688;2023-05-16T03:05:28;99962.91;;;13.36
51149;BMP280;37210;50.058;8.688;2023-05-16T03:07:57;100028.88;;;13.74
51149;BMP280;37210;50.058;8.688;2023-05-16T03:10:25;100025.69;;;13.52
51149;BMP280;37210;50.058;8.688;2023-05-16T03:12:53;99987.69;;;13.17
51149;BMP280;37210;50.058;8.688;2023-05-16T03:15:21;100025.50;;;13.66
51149;BMP280;37210;50.058;8.688;2023-05-16T03:17:49;100035.31;;;13.53
51149;BMP280;37210;50.058;8.688;2023-05-16T03:20:18;100035.25;;;13.56
51149;BMP280;37210;50.058;8.688;2023-05-16T03:22:46;99975.44;;;13.17
51149;BMP280;37210;50.058;8.688;2023-05-16T03:25:15;100017.00;;;13.49
51149;BMP280;37210;50.058;8.688;2023-05-16T03:27:43;100032.25;;;13.23
51149;BMP280;37210;50.058;8.688;2023-05-16T03:30:11;100032.59;;;13.59
51149;BMP280;37210;50.058;8.688;2023-05-16T03:32:40;99995.50;;;13.23
51149;BMP280;37210;50.058;8.688;2023-05-16T03:35:08;99992.09;;;13.15
51149;BMP280;37210;50.058;8.688;2023-05-16T03:37:37;99993.75;;;13.22
51149;BMP280;37210;50.058;8.688;2023-05-16T03:40:06;100034.09;;;13.18
51149;BMP280;37210;50.058;8.688;2023-05-16T03:42:36;100046.25;;;13.23
51149;BMP280;37210;50.058;8.688;2023-05-16T03:45:06;100018.31;;;13.19
51149;BMP280;37210;50.058;8.688;2023-05-16T03:47:34;100053.53;;;13.05
51149;BMP280;37210;50.058;8.688;2023-05-16T03:50:02;100022.88;;;13.04
51149;BMP280;37210;50.058;8.688;2023-05-16T03:52:30;100018.44;;;13.12
51149;BMP280;37210;50.058;8.688;2023-05-16T03:54:58;99967.25;;;12.76
51149;BMP280;37210;50.058;8.688;2023-05-16T03:57:28;99933.94;;;12.79
51149;BMP280;37210;50.058;8.688;2023-05-16T03:59:58;100057.50;;;13.34
51149;BMP280;37210;50.058;8.688;2023-05-16T04:02:26;100056.81;;;13.22
51149;BMP280;37210;50.058;8.688;2023-05-16T04:04:54;100014.25;;;12.94
51149;BMP280;37210;50.058;8.688;2023-05-16T04:07:22;100062.91;;;13.24
51149;BMP280;37210;50.058;8.688;2023-05-16T04:09:50;100017.16;;;12.74
51149;BMP280;37210;50.058;8.688;2023-05-16T04:12:18;99983.69;;;12.89
51149;BMP280;37210;50.058;8.688;2023-05-16T04:14:45;100021.09;;;13.09
51149;BMP280;37210;50.058;8.688;2023-05-16T04:17:14;100056.03;;;13.12
51149;BMP280;37210;50.058;8.688;2023-05-16T04:19:42;100060.06;;;13.37
51149;BMP280;37210;50.058;8.688;2023-05-16T04:22:10;100036.16;;;12.93
51149;BMP280;37210;50.058;8.688;2023-05-16T04:24:38;100067.97;;;13.36
51149;BMP280;37210;50.058;8.688;2023-05-16T04:27:07;100067.63;;;13.60
51149;BMP280;37210;50.058;8.688;2023-05-16T04:29:38;99887.09;;;12.52
51149;BMP280;37210;50.058;8.688;2023-05-16T04:32:06;100005.91;;;13.30
51149;BMP280;37210;50.058;8.688;2023-05-16T04:34:35;100051.16;;;13.49
51149;BMP280;37210;50.058;8.688;2023-05-16T04:37:04;100016.34;;;13.35
51149;BMP280;37210;50.058;8.688;2023-05-16T04:39:34;100067.94;;;13.94
51149;BMP280;37210;50.058;8.688;2023-05-16T04:42:02;100068.78;;;13.97
51149;BMP280;37210;50.058;8.688;2023-05-16T04:44:30;100045.56;;;13.69
51149;BMP280;37210;50.058;8.688;2023-05-16T04:46:59;99937.13;;;13.06
51149;BMP280;37210;50.058;8.688;2023-05-16T04:49:26;100081.34;;;13.80
51149;BMP280;37210;50.058;8.688;2023-05-16T04:51:55;100071.53;;;13.91
51149;BMP280;37210;50.058;8.688;2023-05-16T04:54:24;100081.97;;;13.94
51149;BMP280;37210;50.058;8.688;2023-05-16T04:56:52;99868.41;;;12.75
51149;BMP280;37210;50.058;8.688;2023-05-16T04:59:20;99947.28;;;13.28
51149;BMP280;37210;50.058;8.688;2023-05-16T05:01:48;100042.69;;;13.85
51149;BMP280;37210;50.058;8.688;2023-05-16T05:04:15;100004.44;;;13.68
51149;BMP280;37210;50.058;8.688;2023-05-16T05:06:43;100094.56;;;14.27
51149;BMP280;37210;50.058;8.688;2023-05-16T05:09:19;100096.25;;;14.34
51149;BMP280;37210;50.058;8.688;2023-05-16T05:11:47;100092.84;;;14.26
51149;BMP280;37210;50.058;8.688;2023-05-16T05:14:24;100090.13;;;14.31
51149;BMP280;37210;50.058;8.688;2023-05-16T05:16:53;100075.22;;;14.31
51149;BMP280;37210;50.058;8.688;2023-05-16T05:19:20;100102.19;;;14.46
51149;BMP280;37210;50.058;8.688;2023-05-16T05:21:48;100108.09;;;14.57
51149;BMP280;37210;50.058;8.688;2023-05-16T05:24:16;100110.41;;;14.73
51149;BMP280;37210;50.058;8.688;2023-05-16T05:26:45;100067.03;;;14.50
51149;BMP280;37210;50.058;8.688;2023-05-16T05:29:13;100110.63;;;14.63
51149;BMP280;37210;50.058;8.688;2023-05-16T05:31:41;100004.00;;;13.92
51149;BMP280;37210;50.058;8.688;2023-05-16T05:34:10;100117.97;;;14.46
51149;BMP280;37210;50.058;8.688;2023-05-16T05:36:38;100034.94;;;14.29
51149;BMP280;37210;50.058;8.688;2023-05-16T05:39:05;100117.63;;;14.64
51149;BMP280;37210;50.058;8.688;2023-05-16T05:41:33;100123.09;;;14.53
51149;BMP280;37210;50.058;8.688;2023-05-16T05:44:03;100130.84;;;14.61
51149;BMP280;37210;50.058;8.688;2023-05-16T05:46:31;100089.13;;;14.39
51149;BMP280;37210;50.058;8.688;2023-05-16T05:49:00;100094.56;;;14.29
51149;BMP280;37210;50.058;8.688;2023-05-16T05:51:27;100114.66;;;13.78
51149;BMP280;37210;50.058;8.688;2023-05-16T05:53:55;100126.44;;;14.09
51149;BMP280;37210;50.058;8.688;2023-05-16T05:56:24;100137.47;;;14.34
51149;BMP280;37210;50.058;8.688;2023-05-16T05:58:51;100053.47;;;13.70
51149;BMP280;37210;50.058;8.688;2023-05-16T06:01:20;100140.44;;;14.11
51149;BMP280;37210;50.058;8.688;2023-05-16T06:03:49;100047.00;;;13.34
51149;BMP280;37210;50.058;8.688;2023-05-16T06:06:17;100091.59;;;13.39
51149;BMP280;37210;50.058;8.688;2023-05-16T06:08:45;100135.72;;;13.77
51149;BMP280;37210;50.058;8.688;2023-05-16T06:11:13;100151.56;;;13.72
51149;BMP280;37210;50.058;8.688;2023-05-16T06:13:41;100161.50;;;13.49
51149;BMP280;37210;50.058;8.688;2023-05-16T06:16:09;100175.06;;;13.14
51149;BMP280;37210;50.058;8.688;2023-05-16T06:18:38;100165.09;;;13.42
51149;BMP280;37210;50.058;8.688;2023-05-16T06:21:05;100170.16;;;13.57
51149;BMP280;37210;50.058;8.688;2023-05-16T06:23:35;100129.38;;;13.27
51149;BMP280;37210;50.058;8.688;2023-05-16T06:26:03;100120.94;;;12.98
51149;BMP280;37210;50.058;8.688;2023-05-16T06:28:31;100140.91;;;13.16
51149;BMP280;37210;50.058;8.688;2023-05-16T06:30:59;100171.97;;;13.53
51149;BMP280;37210;50.058;8.688;2023-05-16T06:33:27;100191.41;;;13.39
51149;BMP280;37210;50.058;8.688;2023-05-16T06:35:55;100132.78;;;13.37
51149;BMP280;37210;50.058;8.688;2023-05-16T06:38:24;100141.31;;;12.78
51149;BMP280;37210;50.058;8.688;2023-05-16T06:40:52;100191.88;;;12.97
51149;BMP280;37210;50.058;8.688;2023-05-16T06:43:19;100204.06;;;13.04
51149;BMP280;37210;50.058;8.688;2023-05-16T06:45:47;100172.72;;;12.85
51149;BMP280;37210;50.058;8.688;2023-05-16T06:48:14;100214.56;;;13.04
51149;BMP280;37210;50.058;8.688;2023-05-16T06:50:46;100215.50;;;12.97
51149;BMP280;37210;50.058;8.688;2023-05-16T06:53:15;100208.66;;;12.80
51149;BMP280;37210;50.058;8.688;2023-05-16T06:55:43;100198.25;;;12.70
51149;BMP280;37210;50.058;8.688;2023-05-16T06:58:10;100207.00;;;12.72
51149;BMP280;37210;50.058;8.688;2023-05-16T07:00:38;100228.56;;;13.07
51149;BMP280;37210;50.058;8.688;2023-05-16T07:03:08;100227.47;;;13.26
51149;BMP280;37210;50.058;8.688;2023-05-16T07:05:35;100227.41;;;13.29
51149;BMP280;37210;50.058;8.688;2023-05-16T07:08:03;100247.75;;;13.14
51149;BMP280;37210;50.058;8.688;2023-05-16T07:10:32;100256.50;;;13.13
51149;BMP280;37210;50.058;8.688;2023-05-16T07:13:00;100244.22;;;13.15
51149;BMP280;37210;50.058;8.688;2023-05-16T07:15:28;100224.16;;;13.02
51149;BMP280;37210;50.058;8.688;2023-05-16T07:17:55;100233.84;;;13.01
51149;BMP280;37210;50.058;8.688;2023-05-16T07:20:23;100259.81;;;13.33
51149;BMP280;37210;50.058;8.688;2023-05-16T07:22:51;100258.47;;;12.88
51149;BMP280;37210;50.058;8.688;2023-05-16T07:25:18;100250.63;;;12.83
51149;BMP280;37210;50.058;8.688;2023-05-16T07:27:47;100260.88;;;13.11
51149;BMP280;37210;50.058;8.688;2023-05-16T07:30:14;100261.47;;;13.38
51149;BMP280;37210;50.058;8.688;2023-05-16T07:32:42;100245.91;;;13.19
51149;BMP280;37210;50.058;8.688;2023-05-16T07:35:09;100264.19;;;13.29
51149;BMP280;37210;50.058;8.688;2023-05-16T07:37:38;100271.00;;;13.48
51149;BMP280;37210;50.058;8.688;2023-05-16T07:40:08;100255.38;;;13.33
51149;BMP280;37210;50.058;8.688;2023-05-16T07:42:36;100260.50;;;13.47
51149;BMP280;37210;50.058;8.688;2023-05-16T07:45:06;100258.81;;;13.40
51149;BMP280;37210;50.058;8.688;2023-05-16T07:47:34;100278.41;;;13.12
51149;BMP280;37210;50.058;8.688;2023-05-16T07:50:02;100259.97;;;13.15
51149;BMP280;37210;50.058;8.688;2023-05-16T07:52:29;100266.69;;;13.43
51149;BMP280;37210;50.058;8.688;2023-05-16T07:54:56;100283.59;;;13.18
51149;BMP280;37210;50.058;8.688;2023-05-16T07:57:24;100284.38;;;13.26
51149;BMP280;37210;50.058;8.688;2023-05-16T07:59:52;100293.03;;;13.35
51149;BMP280;37210;50.058;8.688;2023-05-16T08:02:21;100292.41;;;13.11
51149;BMP280;37210;50.058;8.688;2023-05-16T08:04:51;100314.56;;;12.73
51149;BMP280;37210;50.058;8.688;2023-05-16T08:07:18;100321.84;;;12.29
51149;BMP280;37210;50.058;8.688;2023-05-16T08:09:45;100333.06;;;12.54
51149;BMP280;37210;50.058;8.688;2023-05-16T08:12:13;100330.59;;;12.31
51149;BMP280;37210;50.058;8.688;2023-05-16T08:14:40;100325.31;;;12.40
51149;BMP280;37210;50.058;8.688;2023-05-16T08:17:08;100346.41;;;12.22
51149;BMP280;37210;50.058;8.688;2023-05-16T08:19:36;100351.63;;;12.21
51149;BMP280;37210;50.058;8.688;2023-05-16T08:22:05;100356.91;;;12.10
51149;BMP280;37210;50.058;8.688;2023-05-16T08:24:33;100356.91;;;12.15
51149;BMP280;37210;50.058;8.688;2023-05-16T08:27:01;100346.31;;;12.39
51149;BMP280;37210;50.058;8.688;2023-05-16T08:29:28;100355.00;;;12.44
51149;BMP280;37210;50.058;8.688;2023-05-16T08:31:56;100368.31;;;12.00
51149;BMP280;37210;50.058;8.688;2023-05-16T08:34:24;100355.06;;;12.33
51149;BMP280;37210;50.058;8.688;2023-05-16T08:36:52;100362.16;;;12.10
51149;BMP280;37210;50.058;8.688;2023-05-16T08:39:20;100351.59;;;12.27
51149;BMP280;37210;50.058;8.688;2023-05-16T08:41:48;100310.78;;;11.76
51149;BMP280;37210;50.058;8.688;2023-05-16T08:44:16;100376.88;;;12.40
51149;BMP280;37210;50.058;8.688;2023-05-16T08:46:50;100336.91;;;11.94
51149;BMP280;37210;50.058;8.688;2023-05-16T08:49:19;100354.38;;;11.92
51149;BMP280;37210;50.058;8.688;2023-05-16T08:51:48;100349.13;;;11.96
51149;BMP280;37210;50.058;8.688;2023-05-16T08:54:19;100367.44;;;12.07
51149;BMP280;37210;50.058;8.688;2023-05-16T08:56:47;100378.81;;;12.00
51149;BMP280;37210;50.058;8.688;2023-05-16T08:59:16;100376.06;;;12.35
51149;BMP280;37210;50.058;8.688;2023-05-16T09:01:44;100379.41;;;12.56
51149;BMP280;37210;50.058;8.688;2023-05-16T09:04:13;100374.13;;;12.62
51149;BMP280;37210;50.058;8.688;2023-05-16T09:06:41;100367.50;;;11.87
51149;BMP280;37210;50.058;8.688;2023-05-16T09:09:08;100316.84;;;11.88
51149;BMP280;37210;50.058;8.688;2023-05-16T09:11:39;100385.81;;;12.02
51149;BMP280;37210;50.058;8.688;2023-05-16T09:14:08;100360.34;;;12.26
51149;BMP280;37210;50.058;8.688;2023-05-16T09:16:35;100382.31;;;12.03
51149;BMP280;37210;50.058;8.688;2023-05-16T09:19:03;100377.88;;;12.15
51149;BMP280;37210;50.058;8.688;2023-05-16T09:21:32;100375.09;;;12.48
51149;BMP280;37210;50.058;8.688;2023-05-16T09:24:05;100360.97;;;12.70
51149;BMP280;37210;50.058;8.688;2023-05-16T09:26:36;100359.91;;;12.97
51149;BMP280;37210;50.058;8.688;2023-05-16T09:29:10;100294.13;;;11.86
51149;BMP280;37210;50.058;8.688;2023-05-16T09:31:38;100384.09;;;11.97
51149;BMP280;37210;50.058;8.688;2023-05-16T09:34:07;100372.59;;;12.28
51149;BMP280;37210;50.058;8.688;2023-05-16T09:36:36;100367.34;;;12.25
51149;BMP280;37210;50.058;8.688;2023-05-16T09:39:04;100375.09;;;12.43
51149;BMP280;37210;50.058;8.688;2023-05-16T09:41:32;100316.44;;;12.56
51149;BMP280;37210;50.058;8.688;2023-05-16T09:44:02;100335.88;;;12.28
51149;BMP280;37210;50.058;8.688;2023-05-16T09:46:33;100359.34;;;12.48
51149;BMP280;37210;50.058;8.688;2023-05-16T09:49:01;100371.34;;;12.87
51149;BMP280;37210;50.058;8.688;2023-05-16T09:51:29;100369.53;;;12.95
51149;BMP280;37210;50.058;8.688;2023-05-16T09:53:57;100372.41;;;12.61
51149;BMP280;37210;50.058;8.688;2023-05-16T09:56:25;100381.94;;;12.76
51149;BMP280;37210;50.058;8.688;2023-05-16T09:58:53;100373.09;;;12.83
51149;BMP280;37210;50.058;8.688;2023-05-16T10:01:22;100322.56;;;12.58
51149;BMP280;37210;50.058;8.688;2023-05-16T10:03:52;100381.75;;;13.05
51149;BMP280;37210;50.058;8.688;2023-05-16T10:06:19;100371.81;;;13.38
51149;BMP280;37210;50.058;8.688;2023-05-16T10:08:48;100374.56;;;13.28
51149;BMP280;37210;50.058;8.688;2023-05-16T10:11:17;100335.00;;;13.43
51149;BMP280;37210;50.058;8.688;2023-05-16T10:13:47;100334.09;;;13.47
51149;BMP280;37210;50.058;8.688;2023-05-16T10:16:21;100373.34;;;13.62
51149;BMP280;37210;50.058;8.688;2023-05-16T10:18:50;100349.59;;;13.70
51149;BMP280;37210;50.058;8.688;2023-05-16T10:21:21;100360.06;;;13.74
51149;BMP280;37210;50.058;8.688;2023-05-16T10:23:50;100360.75;;;13.90
51149;BMP280;37210;50.058;8.688;2023-05-16T10:26:21;100368.72;;;13.84
51149;BMP280;37210;50.058;8.688;2023-05-16T10:28:51;100330.59;;;13.46
51149;BMP280;37210;50.058;8.688;2023-05-16T10:31:20;100363.88;;;13.47
51149;BMP280;37210;50.058;8.688;2023-05-16T10:33:47;100379.06;;;13.99
51149;BMP280;37210;50.058;8.688;2023-05-16T10:36:16;100362.78;;;13.68
51149;BMP280;37210;50.058;8.688;2023-05-16T10:38:45;100363.44;;;13.87
51149;BMP280;37210;50.058;8.688;2023-05-16T10:41:14;100370.00;;;14.21
51149;BMP280;37210;50.058;8.688;2023-05-16T10:43:44;100374.16;;;14.41
51149;BMP280;37210;50.058;8.688;2023-05-16T10:46:22;100368.53;;;14.00
51149;BMP280;37210;50.058;8.688;2023-05-16T10:48:51;100374.69;;;13.99
51149;BMP280;37210;50.058;8.688;2023-05-16T10:51:35;100372.78;;;14.10
51149;BMP280;37210;50.058;8.688;2023-05-16T10:54:04;100377.63;;;13.72
51149;BMP280;37210;50.058;8.688;2023-05-16T10:56:34;100379.47;;;13.61
51149;BMP280;37210;50.058;8.688;2023-05-16T10:59:02;100368.44;;;14.06
51149;BMP280;37210;50.058;8.688;2023-05-16T11:01:31;100379.38;;;13.69
51149;BMP280;37210;50.058;8.688;2023-05-16T11:04:05;100373.06;;;13.86
51149;BMP280;37210;50.058;8.688;2023-05-16T11:06:42;100392.91;;;14.16
51149;BMP280;37210;50.058;8.688;2023-05-16T11:09:20;100387.22;;;13.76
51149;BMP280;37210;50.058;8.688;2023-05-16T11:11:55;100395.81;;;13.93
51149;BMP280;37210;50.058;8.688;2023-05-16T11:14:27;100373.06;;;13.89
51149;BMP280;37210;50.058;8.688;2023-05-16T11:17:01;100385.28;;;13.92
51149;BMP280;37210;50.058;8.688;2023-05-16T11:19:34;100371.75;;;14.23
51149;BMP280;37210;50.058;8.688;2023-05-16T11:22:11;100398.25;;;14.07
51149;BMP280;37210;50.058;8.688;2023-05-16T11:24:52;100402.56;;;14.12
51149;BMP280;37210;50.058;8.688;2023-05-16T11:27:24;100391.03;;;13.45
51149;BMP280;37210;50.058;8.688;2023-05-16T11:29:54;100392.31;;;13.90
51149;BMP280;37210;50.058;8.688;2023-05-16T11:32:25;100334.38;;;13.99
51149;BMP280;37210;50.058;8.688;2023-05-16T11:34:53;100395.69;;;14.72
51149;BMP280;37210;50.058;8.688;2023-05-16T11:37:23;100397.41;;;14.75
51149;BMP280;37210;50.058;8.688;2023-05-16T11:39:50;100393.13;;;13.96
51149;BMP280;37210;50.058;8.688;2023-05-16T11:42:18;100345.56;;;14.13
51149;BMP280;37210;50.058;8.688;2023-05-16T11:44:45;100233.09;;;12.89
51149;BMP280;37210;50.058;8.688;2023-05-16T11:47:13;100409.06;;;13.80
51149;BMP280;37210;50.058;8.688;2023-05-16T11:49:40;100363.72;;;13.58
51149;BMP280;37210;50.058;8.688;2023-05-16T11:52:08;100386.16;;;13.92
51149;BMP280;37210;50.058;8.688;2023-05-16T11:54:39;100390.00;;;13.61
51149;BMP280;37210;50.058;8.688;2023-05-16T11:57:07;100392.56;;;13.67
51149;BMP280;37210;50.058;8.688;2023-05-16T11:59:35;100396.03;;;13.72
51149;BMP280;37210;50.058;8.688;2023-05-16T12:02:04;100397.84;;;14.43
51149;BMP280;37210;50.058;8.688;2023-05-16T12:04:34;100370.84;;;14.88
51149;BMP280;37210;50.058;8.688;2023-05-16T12:07:03;100397.19;;;14.88
51149;BMP280;37210;50.058;8.688;2023-05-16T12:09:30;100402.38;;;14.27
51149;BMP280;37210;50.058;8.688;2023-05-16T12:12:03;100406.66;;;14.40
51149;BMP280;37210;50.058;8.688;2023-05-16T12:14:32;100385.47;;;14.48
51149;BMP280;37210;50.058;8.688;2023-05-16T12:17:00;100301.44;;;14.36
51149;BMP280;37210;50.058;8.688;2023-05-16T12:19:29;100398.31;;;14.72
51149;BMP280;37210;50.058;8.688;2023-05-16T12:21:57;100364.94;;;14.74
51149;BMP280;37210;50.058;8.688;2023-05-16T12:24:29;100377.41;;;15.18
51149;BMP280;37210;50.058;8.688;2023-05-16T12:26:57;100372.34;;;15.56
51149;BMP280;37210;50.058;8.688;2023-05-16T12:29:26;100355.97;;;15.39
51149;BMP280;37210;50.058;8.688;2023-05-16T12:31:54;100305.81;;;14.92
51149;BMP280;37210;50.058;8.688;2023-05-16T12:34:28;100332.19;;;15.89
51149;BMP280;37210;50.058;8.688;2023-05-16T12:37:03;100204.97;;;15.33
51149;BMP280;37210;50.058;8.688;2023-05-16T12:39:36;100095.50;;;14.23
51149;BMP280;37210;50.058;8.688;2023-05-16T12:42:06;100232.09;;;15.39
51149;BMP280;37210;50.058;8.688;2023-05-16T12:44:37;100346.34;;;15.84
51149;BMP280;37210;50.058;8.688;2023-05-16T12:47:10;100332.66;;;16.08
51149;BMP280;37210;50.058;8.688;2023-05-16T12:49:43;100283.13;;;15.79
51149;BMP280;37210;50.058;8.688;2023-05-16T12:52:16;100351.81;;;15.73
51149;BMP280;37210;50.058;8.688;2023-05-16T12:54:45;100355.81;;;15.95
51149;BMP280;37210;50.058;8.688;2023-05-16T12:57:14;100212.94;;;15.30
51149;BMP280;37210;50.058;8.688;2023-05-16T12:59:43;100341.19;;;16.21
51149;BMP280;37210;50.058;8.688;2023-05-16T13:02:11;100353.53;;;15.76
51149;BMP280;37210;50.058;8.688;2023-05-16T13:04:39;100375.69;;;16.12
51149;BMP280;37210;50.058;8.688;2023-05-16T13:07:06;100383.47;;;15.75
51149;BMP280;37210;50.058;8.688;2023-05-16T13:09:34;100247.91;;;15.39
51149;BMP280;37210;50.058;8.688;2023-05-16T13:12:02;100375.59;;;16.15
51149;BMP280;37210;50.058;8.688;2023-05-16T13:14:30;100379.47;;;15.98
51149;BMP280;37210;50.058;8.688;2023-05-16T13:16:59;100344.69;;;16.21
51149;BMP280;37210;50.058;8.688;2023-05-16T13:19:28;100369.06;;;16.75
51149;BMP280;37210;50.058;8.688;2023-05-16T13:21:56;100184.91;;;15.26
51149;BMP280;37210;50.058;8.688;2023-05-16T13:24:24;100292.53;;;15.92
51149;BMP280;37210;50.058;8.688;2023-05-16T13:26:52;100331.41;;;16.26
51149;BMP280;37210;50.058;8.688;2023-05-16T13:29:19;100403.38;;;16.34
51149;BMP280;37210;50.058;8.688;2023-05-16T13:31:47;100382.69;;;16.55
51149;BMP280;37210;50.058;8.688;2023-05-16T13:34:17;100307.91;;;15.72
51149;BMP280;37210;50.058;8.688;2023-05-16T13:36:45;100218.13;;;15.34
51149;BMP280;37210;50.058;8.688;2023-05-16T13:39:14;100378.59;;;16.41
51149;BMP280;37210;50.058;8.688;2023-05-16T13:41:42;100352.66;;;16.20
51149;BMP280;37210;50.058;8.688;2023-05-16T13:44:09;100388.53;;;16.28
51149;BMP280;37210;50.058;8.688;2023-05-16T13:46:37;100376.63;;;16.52
51149;BMP280;37210;50.058;8.688;2023-05-16T13:49:05;100386.66;;;16.35
51149;BMP280;37210;50.058;8.688;2023-05-16T13:51:34;100364.38;;;16.46
51149;BMP280;37210;50.058;8.688;2023-05-16T13:54:02;100376.63;;;16.50
51149;BMP280;37210;50.058;8.688;2023-05-16T13:56:30;100373.66;;;16.65
51149;BMP280;37210;50.058;8.688;2023-05-16T13:58:57;100374.00;;;16.49
51149;BMP280;37210;50.058;8.688;2023-05-16T14:01:25;100392.06;;;16.29
51149;BMP280;37210;50.058;8.688;2023-05-16T14:03:53;100383.25;;;16.28
51149;BMP280;37210;50.058;8.688;2023-05-16T14:06:21;100371.88;;;15.82
51149;BMP280;37210;50.058;8.688;2023-05-16T14:08:50;100395.00;;;16.14
51149;BMP280;37210;50.058;8.688;2023-05-16T14:11:17;100387.63;;;16.29